Time;durP1;ratioP1;P1;durP2;ratioP2;P2;SDS_P1;SDS_P2;PMS_P1;PMS_P2;Temp;Humidity;BMP_temperature;BMP_pressure;BME280_temperature;BME280_humidity;BME280_pressure;Samples;Min_cycle;Max_cycle;Signal;HPM_P1;HPM_P2
2023/10/15 00:00:55;;;;;;;608.40;545.67;;;28.70;99.90;;;;;;5017687;28;20129;-67
2023/10/15 00:03:21;;;;;;;631.75;566.60;;;28.70;99.90;;;;;;5026666;28;20030;-69
2023/10/15 00:05:48;;;;;;;624.22;559.90;;;28.80;99.90;;;;;;4996725;28;20064;-68
2023/10/15 00:08:14;;;;;;;605.00;542.15;;;28.80;99.90;;;;;;5012883;28;20022;-67
2023/10/15 00:10:41;;;;;;;591.35;530.30;;;28.80;99.90;;;;;;5015425;28;20593;-66
2023/10/15 00:13:08;;;;;;;592.97;531.70;;;28.80;99.90;;;;;;5006849;28;20034;-67
2023/10/15 00:15:35;;;;;;;626.80;563.72;;;28.90;99.90;;;;;;5010754;28;20026;-67
2023/10/15 00:18:07;;;;;;;655.88;589.42;;;28.90;99.90;;;;;;5015209;28;20554;-65
2023/10/15 00:20:36;;;;;;;632.67;568.55;;;29.00;99.90;;;;;;5012153;28;20053;-67
2023/10/15 00:23:04;;;;;;;657.85;591.92;;;29.00;99.90;;;;;;5015802;28;20034;-68
2023/10/15 00:25:50;;;;;;;633.15;569.58;;;29.00;99.90;;;;;;5016432;28;20142;-67
2023/10/15 00:28:17;;;;;;;646.40;582.00;;;29.00;99.90;;;;;;5015933;28;20471;-67
2023/10/15 00:30:44;;;;;;;670.00;603.00;;;29.10;99.90;;;;;;5015703;28;20052;-67
2023/10/15 00:33:12;;;;;;;665.30;597.47;;;29.10;99.90;;;;;;5011766;28;20057;-67
2023/10/15 00:35:40;;;;;;;656.10;590.72;;;29.10;99.90;;;;;;5013952;28;20065;-68
2023/10/15 00:38:19;;;;;;;638.85;574.38;;;29.20;99.90;;;;;;5011166;28;20038;-67
2023/10/15 00:40:49;;;;;;;605.55;544.40;;;29.20;99.90;;;;;;5010844;28;20042;-66
2023/10/15 00:43:17;;;;;;;653.72;588.30;;;29.20;99.90;;;;;;5015179;28;20430;-66
2023/10/15 00:45:44;;;;;;;588.42;528.17;;;29.20;99.90;;;;;;5015365;28;20026;-67
2023/10/15 00:48:22;;;;;;;625.95;563.40;;;29.20;99.90;;;;;;5015277;28;20053;-66
2023/10/15 00:50:51;;;;;;;583.50;523.85;;;29.30;99.90;;;;;;5015183;28;20485;-67
2023/10/15 00:53:22;;;;;;;584.20;524.70;;;29.30;99.90;;;;;;5014533;28;20075;-71
2023/10/15 00:55:51;;;;;;;647.55;583.78;;;29.40;99.90;;;;;;5014935;28;20037;-70
2023/10/15 01:04:00;;;;;;;571.35;513.22;;;29.50;99.90;;;;;;5014938;28;20042;-72
2023/10/15 01:06:31;;;;;;;608.30;546.22;;;29.50;99.90;;;;;;5014867;28;20033;-71
2023/10/15 01:08:59;;;;;;;607.38;545.63;;;29.60;99.90;;;;;;4996368;28;20498;-69
2023/10/15 01:11:28;;;;;;;608.65;546.42;;;29.60;99.90;;;;;;4995182;28;20041;-69
2023/10/15 01:13:55;;;;;;;607.72;545.13;;;29.60;99.90;;;;;;4995185;28;20026;-69
2023/10/15 01:16:27;;;;;;;629.22;565.65;;;29.60;99.90;;;;;;4995105;28;20030;-70
2023/10/15 01:18:57;;;;;;;625.30;561.88;;;29.60;99.90;;;;;;4995047;28;20494;-69
2023/10/15 01:21:29;;;;;;;612.53;549.75;;;29.60;99.90;;;;;;4995129;28;20035;-69
2023/10/15 01:24:05;;;;;;;643.33;577.42;;;29.70;99.90;;;;;;4995122;28;20030;-70
2023/10/15 01:26:36;;;;;;;659.83;592.22;;;29.80;99.90;;;;;;4994956;28;20045;-70
2023/10/15 01:29:06;;;;;;;659.72;591.13;;;29.90;99.90;;;;;;4994792;28;20023;-68
2023/10/15 01:31:50;;;;;;;642.10;576.08;;;30.00;99.90;;;;;;4994365;28;20070;-69
2023/10/15 01:34:21;;;;;;;675.70;606.67;;;30.00;99.90;;;;;;4994814;28;20027;-72
2023/10/15 01:36:50;;;;;;;680.45;611.20;;;30.10;99.90;;;;;;5005998;28;20060;-71
2023/10/15 01:39:22;;;;;;;672.97;604.17;;;30.10;99.90;;;;;;5007349;28;20028;-71
2023/10/15 01:41:55;;;;;;;667.10;598.55;;;30.20;99.90;;;;;;4994683;28;20026;-70
2023/10/15 01:44:23;;;;;;;689.67;618.78;;;30.30;99.90;;;;;;5002680;28;20065;-71
2023/10/15 01:47:08;;;;;;;687.70;618.35;;;30.20;99.90;;;;;;5014442;28;20022;-72
2023/10/15 01:49:34;;;;;;;684.83;615.15;;;30.20;99.90;;;;;;5014079;28;20102;-71
2023/10/15 01:52:12;;;;;;;665.80;598.17;;;30.30;99.90;;;;;;5014226;28;20029;-70
2023/10/15 01:54:45;;;;;;;646.58;580.67;;;30.30;99.90;;;;;;5014519;28;20371;-69
2023/10/15 01:57:15;;;;;;;693.67;622.72;;;30.40;99.90;;;;;;5014800;28;20049;-72
2023/10/15 01:59:45;;;;;;;717.25;645.55;;;30.40;99.90;;;;;;5014397;28;20397;-69
2023/10/15 02:02:17;;;;;;;669.88;602.45;;;30.40;99.90;;;;;;5013878;28;20088;-71
2023/10/15 02:04:46;;;;;;;644.45;579.53;;;30.50;99.90;;;;;;5013763;28;20129;-70
2023/10/15 02:07:17;;;;;;;628.75;564.83;;;30.60;99.90;;;;;;5013937;28;20029;-71
2023/10/15 02:09:44;;;;;;;640.65;576.05;;;30.70;99.90;;;;;;4996387;28;20588;-70
2023/10/15 02:12:17;;;;;;;639.22;574.33;;;30.70;99.90;;;;;;5014067;28;20037;-70
2023/10/15 02:14:44;;;;;;;647.70;581.42;;;30.70;99.90;;;;;;5013842;28;20030;-70
2023/10/15 02:17:13;;;;;;;635.50;572.00;;;30.70;99.90;;;;;;5013969;28;20483;-70
2023/10/15 02:19:41;;;;;;;617.40;553.40;;;30.70;99.90;;;;;;5014055;28;20108;-70
2023/10/15 02:22:17;;;;;;;618.67;554.50;;;30.80;99.90;;;;;;5013690;28;20096;-70
2023/10/15 02:24:47;;;;;;;613.30;548.40;;;30.90;99.90;;;;;;5014128;28;20443;-71
2023/10/15 02:27:23;;;;;;;645.60;578.72;;;30.90;99.90;;;;;;5013501;28;20639;-70
2023/10/15 02:29:49;;;;;;;641.75;574.83;;;31.00;99.90;;;;;;5012671;28;20472;-70
2023/10/15 02:34:53;;;;;;;633.78;566.72;;;31.10;99.90;;;;;;5013516;28;20520;-71
2023/10/15 02:37:30;;;;;;;661.30;592.15;;;31.20;99.90;;;;;;5014216;28;20041;-71
2023/10/15 02:39:58;;;;;;;641.83;574.72;;;31.30;99.90;;;;;;5013927;28;20084;-70
2023/10/15 02:42:35;;;;;;;662.85;592.67;;;31.40;99.90;;;;;;5015948;28;20030;-69
2023/10/15 02:45:06;;;;;;;652.15;583.33;;;31.40;99.90;;;;;;5010873;28;20392;-70
2023/10/15 02:47:41;;;;;;;640.60;572.58;;;31.60;99.90;;;;;;5012061;28;20060;-70
2023/10/15 02:50:10;;;;;;;648.20;578.40;;;31.60;99.90;;;;;;5018105;28;20463;-71
2023/10/15 02:52:43;;;;;;;622.10;555.25;;;31.60;99.90;;;;;;5017696;28;20030;-70
2023/10/15 02:55:14;;;;;;;645.92;576.53;;;31.70;99.90;;;;;;5017789;28;20022;-70
2023/10/15 02:57:42;;;;;;;659.00;588.37;;;31.70;99.90;;;;;;5007417;28;20041;-70
2023/10/15 03:00:28;;;;;;;661.40;589.60;;;31.80;99.90;;;;;;4998156;28;20026;-69
2023/10/15 03:02:57;;;;;;;625.67;558.20;;;31.80;99.90;;;;;;4998275;28;20042;-70
2023/10/15 03:05:30;;;;;;;600.97;535.92;;;31.90;99.90;;;;;;4997987;28;20074;-70
2023/10/15 03:07:59;;;;;;;609.28;542.55;;;31.80;99.90;;;;;;4998214;28;20102;-70
2023/10/15 03:10:44;;;;;;;601.05;536.63;;;31.80;99.90;;;;;;4997671;28;20037;-68
2023/10/15 03:13:14;;;;;;;567.42;506.48;;;31.90;99.90;;;;;;5007975;28;20117;-73
2023/10/15 03:15:50;;;;;;;572.42;512.40;;;31.90;99.90;;;;;;5017570;28;20026;-69
2023/10/15 03:18:28;;;;;;;551.60;492.95;;;32.00;99.90;;;;;;4997891;28;20475;-72
2023/10/15 03:23:42;;;;;;;545.17;488.27;;;32.20;99.90;;;;;;4997561;28;20062;-72
2023/10/15 03:26:17;;;;;;;541.78;485.88;;;32.30;99.90;;;;;;4997400;28;20026;-72
2023/10/15 03:28:45;;;;;;;581.38;521.88;;;32.30;99.90;;;;;;4997437;28;20026;-72
2023/10/15 03:31:23;;;;;;;557.10;499.95;;;32.40;99.90;;;;;;4997051;28;20061;-74
2023/10/15 03:36:42;;;;;;;549.17;493.27;;;32.60;99.90;;;;;;4997213;28;20053;-75
2023/10/15 03:39:15;;;;;;;570.42;512.78;;;32.60;99.90;;;;;;4998777;28;20029;-69
2023/10/15 03:41:49;;;;;;;554.25;498.85;;;32.60;99.90;;;;;;5016691;28;20034;-71
2023/10/15 03:44:23;;;;;;;566.63;508.92;;;32.80;99.90;;;;;;5016490;28;20017;-70
2023/10/15 03:46:50;;;;;;;538.22;483.40;;;32.80;99.90;;;;;;5016681;28;20068;-69
2023/10/15 03:49:26;;;;;;;556.58;500.58;;;32.90;99.90;;;;;;5016527;28;20025;-71
2023/10/15 03:51:53;;;;;;;555.97;499.67;;;32.90;99.90;;;;;;5016675;28;20022;-69
2023/10/15 03:54:22;;;;;;;563.35;505.55;;;32.90;99.90;;;;;;5016221;28;20037;-71
2023/10/15 03:56:52;;;;;;;554.20;498.42;;;33.00;99.90;;;;;;5016320;28;20053;-71
2023/10/15 03:59:20;;;;;;;550.25;493.77;;;33.10;99.90;;;;;;5016420;28;20160;-71
2023/10/15 04:01:49;;;;;;;576.67;519.08;;;33.20;99.90;;;;;;5016124;28;20022;-70
2023/10/15 04:04:17;;;;;;;569.95;512.65;;;33.30;99.90;;;;;;5016008;28;20025;-72
2023/10/15 04:07:10;;;;;;;583.40;524.13;;;33.40;99.90;;;;;;5022414;28;20022;-71
2023/10/15 04:09:34;;;;;;;614.85;552.58;;;33.40;99.90;;;;;;5024998;28;20014;-71
2023/10/15 04:12:02;;;;;;;626.22;563.03;;;33.40;99.90;;;;;;5026204;28;20033;-71
2023/10/15 04:14:34;;;;;;;622.63;559.83;;;33.50;99.90;;;;;;5022264;28;20030;-69
2023/10/15 04:17:01;;;;;;;663.97;597.85;;;33.50;99.90;;;;;;5023458;28;20029;-67
2023/10/15 04:19:29;;;;;;;633.03;569.75;;;33.60;99.90;;;;;;5020782;28;20026;-70
2023/10/15 04:22:09;;;;;;;659.97;593.92;;;33.60;99.90;;;;;;5024054;28;20025;-69
2023/10/15 04:24:37;;;;;;;657.10;590.63;;;33.60;99.90;;;;;;5022952;28;20414;-68
2023/10/15 04:27:06;;;;;;;626.13;562.13;;;33.50;99.90;;;;;;5016216;28;20029;-69
2023/10/15 04:29:34;;;;;;;638.38;573.65;;;33.50;99.90;;;;;;5025288;28;20399;-66
2023/10/15 04:32:01;;;;;;;648.42;582.72;;;33.50;99.90;;;;;;5021349;28;20076;-66
2023/10/15 04:34:29;;;;;;;646.38;581.13;;;33.50;99.90;;;;;;5016753;28;20034;-68
2023/10/15 04:36:57;;;;;;;634.00;569.50;;;33.50;99.90;;;;;;5022066;28;20029;-67
2023/10/15 04:39:24;;;;;;;677.42;609.60;;;33.60;99.90;;;;;;5019927;28;20033;-65
2023/10/15 04:41:51;;;;;;;669.97;602.85;;;33.60;99.90;;;;;;5020698;28;20057;-67
2023/10/15 04:44:25;;;;;;;646.47;580.78;;;33.60;99.90;;;;;;5019946;28;20538;-66
2023/10/15 04:46:57;;;;;;;687.92;618.83;;;33.70;99.90;;;;;;5016960;28;20037;-67
2023/10/15 04:49:25;;;;;;;647.10;580.80;;;33.70;99.90;;;;;;5021681;28;20022;-66
2023/10/15 04:51:53;;;;;;;637.25;572.20;;;33.70;99.90;;;;;;5023034;28;20204;-68
2023/10/15 04:54:19;;;;;;;654.20;588.08;;;33.80;99.90;;;;;;5019658;28;20025;-66
2023/10/15 04:56:46;;;;;;;638.47;573.92;;;33.80;99.90;;;;;;5015606;28;20018;-65
2023/10/15 04:59:13;;;;;;;670.08;602.53;;;33.90;99.90;;;;;;5010248;28;20024;-65
2023/10/15 05:01:39;;;;;;;729.35;656.78;;;33.90;99.90;;;;;;5013982;28;20021;-65
2023/10/15 05:04:06;;;;;;;833.13;751.55;;;34.00;99.90;;;;;;5013656;28;20041;-66
2023/10/15 05:06:33;;;;;;;1007.97;907.35;;;34.00;99.10;;;;;;5013879;28;20388;-66
2023/10/15 05:08:59;;;;;;;1038.20;934.33;;;34.10;99.20;;;;;;5019934;28;20032;-65
2023/10/15 05:11:27;;;;;;;985.83;887.75;;;34.10;99.40;;;;;;5018591;28;20384;-65
2023/10/15 05:13:54;;;;;;;996.92;897.08;;;34.10;98.80;;;;;;5014144;28;20026;-65
2023/10/15 05:16:21;;;;;;;1106.50;994.33;;;34.20;98.90;;;;;;5013818;28;20018;-66
2023/10/15 05:18:47;;;;;;;1271.93;999.90;;;34.30;98.30;;;;;;5013599;28;20032;-67
2023/10/15 05:21:14;;;;;;;1292.47;999.90;;;34.30;97.90;;;;;;5013633;28;20497;-67
2023/10/15 05:23:40;;;;;;;1479.47;999.90;;;34.40;98.00;;;;;;5013521;28;20121;-66
2023/10/15 05:26:07;;;;;;;1374.82;999.90;;;34.50;97.30;;;;;;5018853;28;20021;-65
2023/10/15 05:28:33;;;;;;;1141.00;999.90;;;34.60;97.40;;;;;;5023290;28;20025;-65
2023/10/15 05:31:00;;;;;;;1113.40;998.75;;;34.60;97.40;;;;;;5030963;28;20091;-63
2023/10/15 05:33:28;;;;;;;1054.35;949.38;;;34.60;97.00;;;;;;5030719;28;20052;-65
2023/10/15 05:35:56;;;;;;;1330.07;999.90;;;34.40;96.00;;;;;;5030584;28;20475;-65
2023/10/15 05:38:25;;;;;;;929.00;837.53;;;34.40;96.10;;;;;;5028632;28;20025;-64
2023/10/15 05:40:59;;;;;;;966.25;870.28;;;34.40;95.90;;;;;;5021180;28;20113;-65
2023/10/15 05:43:26;;;;;;;1133.28;999.90;;;34.50;95.90;;;;;;5015479;28;20053;-64
2023/10/15 05:45:53;;;;;;;1042.03;938.05;;;34.50;95.80;;;;;;5017171;28;20099;-65
2023/10/15 05:48:20;;;;;;;1107.55;996.03;;;34.60;96.00;;;;;;5014975;28;20057;-66
2023/10/15 05:50:48;;;;;;;1383.20;999.90;;;34.60;95.90;;;;;;5021225;28;20029;-66
2023/10/15 05:53:16;;;;;;;1104.82;988.75;;;34.60;96.30;;;;;;5021777;28;20030;-65
2023/10/15 05:55:43;;;;;;;1376.68;999.90;;;34.60;96.20;;;;;;5021491;28;20077;-67
2023/10/15 05:58:09;;;;;;;1301.80;999.90;;;34.70;96.20;;;;;;5020239;28;20021;-70
2023/10/15 06:00:43;;;;;;;1109.50;997.17;;;34.80;95.50;;;;;;5019529;28;20028;-71
2023/10/15 06:03:10;;;;;;;949.53;856.28;;;34.90;95.30;;;;;;5000766;28;20426;-70
2023/10/15 06:05:37;;;;;;;941.33;847.92;;;35.00;95.30;;;;;;5019161;28;20041;-73
2023/10/15 06:08:04;;;;;;;1030.53;927.33;;;35.00;95.20;;;;;;5021745;28;20020;-72
2023/10/15 06:10:32;;;;;;;1189.75;999.90;;;35.00;95.10;;;;;;5021626;28;20128;-72
2023/10/15 06:12:59;;;;;;;1284.97;999.90;;;34.90;94.40;;;;;;5019038;28;20390;-71
2023/10/15 06:15:26;;;;;;;987.30;889.65;;;34.80;95.00;;;;;;5022414;28;20017;-71
2023/10/15 06:17:52;;;;;;;1307.43;999.90;;;35.00;95.00;;;;;;5022506;28;20041;-72
2023/10/15 06:20:20;;;;;;;942.22;848.90;;;35.10;95.00;;;;;;5015492;28;20022;-72
2023/10/15 06:22:47;;;;;;;925.30;834.47;;;35.20;94.90;;;;;;5018222;28;20037;-74
2023/10/15 06:25:17;;;;;;;805.55;726.85;;;35.20;94.60;;;;;;5011743;28;20025;-72
2023/10/15 06:27:44;;;;;;;811.17;731.88;;;35.30;94.30;;;;;;5012066;28;20386;-72
2023/10/15 06:30:21;;;;;;;785.13;707.97;;;35.30;94.10;;;;;;5013072;28;20072;-72
2023/10/15 06:32:49;;;;;;;809.50;729.75;;;35.30;94.10;;;;;;5012623;28;20042;-72
2023/10/15 06:35:18;;;;;;;894.47;806.80;;;35.30;94.30;;;;;;5023236;28;20061;-72
2023/10/15 06:37:47;;;;;;;907.15;817.47;;;35.30;93.90;;;;;;5017283;28;20029;-71
2023/10/15 06:40:15;;;;;;;1089.97;975.22;;;35.40;94.00;;;;;;5020771;28;20022;-71
2023/10/15 06:42:44;;;;;;;1031.32;928.03;;;35.50;93.40;;;;;;5023152;28;20033;-72
2023/10/15 06:45:19;;;;;;;753.33;679.15;;;35.60;93.50;;;;;;5021667;28;20049;-71
2023/10/15 06:47:49;;;;;;;680.45;612.05;;;35.60;93.70;;;;;;5018025;28;20084;-72
2023/10/15 06:50:15;;;;;;;645.88;580.53;;;35.60;93.10;;;;;;5014675;28;20030;-71
2023/10/15 06:52:43;;;;;;;644.92;580.17;;;35.70;92.90;;;;;;5008039;28;20073;-72
2023/10/15 06:55:13;;;;;;;647.70;582.20;;;35.70;93.00;;;;;;5015171;28;20029;-71
2023/10/15 06:57:40;;;;;;;643.92;579.13;;;35.70;92.70;;;;;;5009225;28;20029;-73
2023/10/15 07:00:09;;;;;;;638.20;572.95;;;35.80;92.80;;;;;;5010232;28;20049;-72
2023/10/15 07:02:36;;;;;;;649.50;584.35;;;35.80;92.40;;;;;;5015671;28;20478;-71
2023/10/15 07:05:04;;;;;;;642.60;577.78;;;35.80;92.30;;;;;;5020186;28;20474;-72
2023/10/15 07:07:34;;;;;;;610.55;548.80;;;35.80;92.20;;;;;;5013670;28;20054;-71
2023/10/15 07:10:05;;;;;;;606.70;545.20;;;35.80;91.80;;;;;;5016571;28;20056;-71
2023/10/15 07:12:36;;;;;;;591.03;530.72;;;35.80;91.80;;;;;;5010974;28;20093;-72
2023/10/15 07:15:05;;;;;;;556.40;499.63;;;35.80;91.60;;;;;;5009359;28;20129;-72
2023/10/15 07:17:31;;;;;;;569.72;510.70;;;35.90;91.30;;;;;;5018325;28;20106;-72
2023/10/15 07:19:58;;;;;;;557.97;500.40;;;35.80;91.00;;;;;;5013809;28;20026;-72
2023/10/15 07:22:24;;;;;;;568.90;509.98;;;35.80;91.10;;;;;;5012785;28;20093;-71
2023/10/15 07:24:51;;;;;;;636.95;569.92;;;35.80;91.00;;;;;;5012903;28;20014;-75
2023/10/15 07:27:17;;;;;;;549.83;493.15;;;35.80;91.00;;;;;;5012742;28;20072;-71
2023/10/15 07:29:44;;;;;;;523.05;469.38;;;35.80;90.50;;;;;;5016640;28;20105;-71
2023/10/15 07:32:11;;;;;;;516.72;463.25;;;35.70;90.70;;;;;;5016609;28;20045;-72
2023/10/15 07:34:38;;;;;;;536.50;481.55;;;35.70;90.30;;;;;;5016693;28;20486;-66
2023/10/15 07:37:04;;;;;;;522.17;468.40;;;35.70;90.40;;;;;;5027178;28;20068;-68
2023/10/15 07:39:31;;;;;;;553.92;497.23;;;35.80;90.20;;;;;;5025709;28;20018;-67
2023/10/15 07:41:58;;;;;;;576.95;518.03;;;35.80;90.40;;;;;;5025710;28;20439;-67
2023/10/15 07:44:25;;;;;;;553.55;496.40;;;35.80;90.20;;;;;;5027062;28;20017;-68
2023/10/15 07:46:52;;;;;;;543.95;488.05;;;35.80;90.50;;;;;;5017689;28;20021;-66
2023/10/15 07:49:20;;;;;;;544.95;488.73;;;35.80;90.30;;;;;;5026365;28;20375;-65
2023/10/15 07:51:47;;;;;;;553.08;495.60;;;35.90;91.10;;;;;;5024393;28;20105;-66
2023/10/15 07:54:14;;;;;;;560.88;502.90;;;35.80;91.30;;;;;;5026139;28;20021;-66
2023/10/15 07:56:41;;;;;;;559.53;501.48;;;35.80;91.60;;;;;;5026913;28;20018;-64
2023/10/15 07:59:08;;;;;;;535.42;479.83;;;35.80;91.80;;;;;;5024784;28;20489;-67
2023/10/15 08:01:36;;;;;;;548.55;491.55;;;35.70;92.20;;;;;;5025979;28;20045;-66
2023/10/15 08:04:05;;;;;;;560.50;502.40;;;35.60;92.40;;;;;;5026846;28;20033;-65
2023/10/15 08:06:32;;;;;;;550.83;493.88;;;35.60;92.40;;;;;;5024895;28;20026;-67
2023/10/15 08:08:58;;;;;;;524.25;469.52;;;35.50;92.50;;;;;;5025272;28;20009;-67
2023/10/15 08:11:25;;;;;;;561.90;503.95;;;35.50;92.60;;;;;;5025597;28;20022;-66
2023/10/15 08:13:52;;;;;;;574.17;514.55;;;35.50;92.50;;;;;;5023804;28;20060;-67
2023/10/15 08:16:18;;;;;;;574.25;515.28;;;35.40;92.00;;;;;;5026020;28;20029;-65
2023/10/15 08:18:45;;;;;;;602.60;540.83;;;35.40;92.80;;;;;;5024347;28;20014;-67
2023/10/15 08:21:12;;;;;;;619.88;556.03;;;35.40;92.50;;;;;;5025308;28;20021;-66
2023/10/15 08:23:39;;;;;;;610.10;547.40;;;35.40;92.50;;;;;;5020463;28;20475;-66
2023/10/15 08:26:06;;;;;;;615.13;551.72;;;35.40;92.90;;;;;;5019088;28;20021;-66
2023/10/15 08:28:33;;;;;;;605.35;542.88;;;35.20;92.90;;;;;;5016205;28;20025;-66
2023/10/15 08:31:00;;;;;;;571.05;511.17;;;35.20;93.70;;;;;;5018625;28;20018;-67
2023/10/15 08:33:26;;;;;;;600.47;538.20;;;35.30;94.10;;;;;;5020528;28;20124;-65
2023/10/15 08:35:53;;;;;;;665.55;597.70;;;35.30;94.70;;;;;;5016190;28;20022;-65
2023/10/15 08:38:19;;;;;;;675.63;606.03;;;35.30;94.30;;;;;;5021599;28;20030;-61
2023/10/15 08:40:48;;;;;;;687.60;617.05;;;35.20;94.20;;;;;;5020869;28;20018;-62
2023/10/15 08:43:20;;;;;;;793.00;713.60;;;35.10;93.40;;;;;;5019628;28;20121;-61
2023/10/15 08:45:48;;;;;;;769.28;691.55;;;35.10;93.50;;;;;;5015226;28;20032;-63
2023/10/15 08:48:18;;;;;;;789.72;710.33;;;35.00;93.50;;;;;;5015450;28;20026;-66
2023/10/15 08:50:46;;;;;;;1056.82;948.60;;;35.00;93.60;;;;;;5015393;28;20026;-67
2023/10/15 08:53:13;;;;;;;1265.85;999.90;;;34.90;93.80;;;;;;5015230;28;20380;-67
2023/10/15 08:55:41;;;;;;;1108.05;986.58;;;34.90;93.40;;;;;;5015107;28;20109;-68
2023/10/15 08:58:11;;;;;;;1003.95;902.35;;;34.90;94.10;;;;;;5015147;28;20037;-68
2023/10/15 09:00:39;;;;;;;1190.60;999.90;;;34.80;94.20;;;;;;5014960;28;20109;-68
2023/10/15 09:03:06;;;;;;;1052.07;943.35;;;34.70;94.10;;;;;;5014976;28;20030;-68
2023/10/15 09:05:37;;;;;;;1150.78;999.90;;;34.60;93.80;;;;;;5014962;28;20430;-67
2023/10/15 09:08:08;;;;;;;937.05;841.13;;;34.50;94.00;;;;;;5014953;28;20076;-66
2023/10/15 09:10:48;;;;;;;880.23;788.30;;;34.50;94.30;;;;;;5014862;28;20022;-66
2023/10/15 09:13:14;;;;;;;789.72;708.80;;;34.40;94.20;;;;;;5014746;28;20312;-65
2023/10/15 09:15:43;;;;;;;743.97;666.67;;;34.30;94.20;;;;;;5014712;28;20383;-68
2023/10/15 09:18:15;;;;;;;759.63;680.92;;;34.20;94.00;;;;;;5015587;28;20025;-64
2023/10/15 09:20:46;;;;;;;733.72;657.60;;;34.00;94.30;;;;;;5015505;28;20111;-65
2023/10/15 09:23:12;;;;;;;710.90;636.92;;;34.10;94.90;;;;;;5015160;28;20029;-63
2023/10/15 09:25:41;;;;;;;801.20;716.60;;;34.10;94.60;;;;;;5029754;28;20026;-64
2023/10/15 09:28:07;;;;;;;768.80;687.28;;;34.10;94.70;;;;;;5025275;28;20036;-63
2023/10/15 09:30:34;;;;;;;768.22;689.13;;;34.00;94.50;;;;;;5028969;28;20024;-64
2023/10/15 09:33:00;;;;;;;778.92;699.35;;;33.90;94.50;;;;;;5034999;28;20426;-63
2023/10/15 09:35:29;;;;;;;799.67;716.20;;;33.90;94.00;;;;;;5034851;28;20053;-63
2023/10/15 09:37:57;;;;;;;869.00;780.20;;;34.00;94.10;;;;;;5034178;28;20057;-63
2023/10/15 09:40:24;;;;;;;903.90;811.80;;;33.90;94.60;;;;;;5034368;28;20037;-63
2023/10/15 09:42:53;;;;;;;1020.08;914.63;;;33.90;94.20;;;;;;5034126;28;20067;-63
2023/10/15 09:45:24;;;;;;;897.15;806.35;;;33.80;94.00;;;;;;5033996;28;20050;-64
2023/10/15 09:47:54;;;;;;;827.53;743.67;;;33.80;93.70;;;;;;5034413;28;20025;-66
2023/10/15 09:50:25;;;;;;;808.25;726.55;;;33.80;93.80;;;;;;5034255;28;20029;-63
2023/10/15 09:52:56;;;;;;;806.78;724.85;;;33.80;94.00;;;;;;5025529;28;20081;-65
2023/10/15 09:55:26;;;;;;;817.17;733.67;;;33.80;93.70;;;;;;5023548;28;20104;-65
2023/10/15 09:57:57;;;;;;;816.65;734.45;;;33.80;93.50;;;;;;5020348;28;20022;-69
2023/10/15 10:00:37;;;;;;;828.50;744.80;;;33.80;93.80;;;;;;5023381;28;20148;-67
2023/10/15 10:03:25;;;;;;;1021.15;916.13;;;33.80;93.90;;;;;;5023549;28;20018;-66
2023/10/15 10:06:09;;;;;;;1065.88;956.10;;;33.80;94.10;;;;;;5024912;28;20498;-68
2023/10/15 10:09:02;;;;;;;860.88;773.20;;;33.80;94.00;;;;;;5021212;28;20404;-67
2023/10/15 10:11:36;;;;;;;967.05;869.35;;;33.60;93.50;;;;;;5024162;28;20021;-67
2023/10/15 10:14:29;;;;;;;976.13;876.80;;;33.60;93.80;;;;;;5024283;28;20104;-68
2023/10/15 10:16:56;;;;;;;1010.33;905.65;;;33.60;93.90;;;;;;5020726;28;20382;-68
2023/10/15 10:19:24;;;;;;;905.03;812.80;;;33.50;93.90;;;;;;5023358;28;20032;-67
2023/10/15 10:21:51;;;;;;;781.65;700.38;;;33.50;94.50;;;;;;5029231;28;20478;-66
2023/10/15 10:24:17;;;;;;;812.78;729.83;;;33.50;94.30;;;;;;5033898;28;20021;-62
2023/10/15 10:27:07;;;;;;;799.83;718.33;;;33.40;94.60;;;;;;5033446;28;20029;-63
2023/10/15 10:29:34;;;;;;;826.97;743.20;;;33.40;94.90;;;;;;5033748;28;20049;-64
2023/10/15 10:32:00;;;;;;;662.97;592.75;;;33.40;95.00;;;;;;5022429;28;20053;-63
2023/10/15 10:34:29;;;;;;;677.70;607.95;;;33.40;95.00;;;;;;5014375;28;20101;-63
2023/10/15 10:36:56;;;;;;;684.05;612.63;;;33.30;95.30;;;;;;5014222;28;20037;-63
2023/10/15 10:39:23;;;;;;;678.42;606.65;;;33.20;95.60;;;;;;5020505;28;20040;-62
2023/10/15 10:41:51;;;;;;;692.80;620.55;;;33.20;96.00;;;;;;5020178;28;20045;-64
2023/10/15 10:44:23;;;;;;;672.40;600.92;;;33.20;96.00;;;;;;5033457;28;20501;-63
2023/10/15 10:46:52;;;;;;;734.78;659.13;;;33.20;96.10;;;;;;5008794;28;20490;-62
2023/10/15 10:49:29;;;;;;;760.65;682.60;;;33.10;96.30;;;;;;4999671;28;20030;-62
2023/10/15 10:52:05;;;;;;;679.25;607.70;;;33.10;96.20;;;;;;4994481;28;20036;-63
2023/10/15 10:54:32;;;;;;;622.25;556.60;;;33.10;96.40;;;;;;4998501;28;20037;-63
2023/10/15 10:57:02;;;;;;;628.95;562.78;;;33.10;96.50;;;;;;5013794;28;20058;-62
2023/10/15 10:59:30;;;;;;;617.42;552.88;;;33.10;96.60;;;;;;5014176;28;20096;-63
2023/10/15 11:01:57;;;;;;;563.72;504.48;;;33.00;97.10;;;;;;5013627;28;20026;-64
2023/10/15 11:04:25;;;;;;;561.35;502.13;;;32.90;96.80;;;;;;5017588;28;20022;-64
2023/10/15 11:06:51;;;;;;;528.28;473.00;;;32.90;97.20;;;;;;5066798;22;20057;-64
2023/10/15 11:09:19;;;;;;;541.90;485.02;;;32.90;97.60;;;;;;5057614;28;20020;-62
2023/10/15 11:11:46;;;;;;;563.40;504.08;;;32.90;97.80;;;;;;5057144;28;20037;-62
2023/10/15 11:14:16;;;;;;;571.00;510.73;;;32.80;97.70;;;;;;5056992;28;20021;-67
2023/10/15 11:16:44;;;;;;;606.30;542.42;;;32.80;97.80;;;;;;5056761;28;20394;-64
2023/10/15 11:19:15;;;;;;;585.50;523.10;;;32.70;97.90;;;;;;5057425;28;20056;-65
2023/10/15 11:21:42;;;;;;;632.10;565.25;;;32.60;98.00;;;;;;5057193;28;20064;-64
2023/10/15 11:24:11;;;;;;;648.85;580.60;;;32.50;98.00;;;;;;5056606;28;20564;-64
2023/10/15 11:26:41;;;;;;;643.30;575.00;;;32.40;98.40;;;;;;5047314;28;20452;-65
2023/10/15 11:29:11;;;;;;;648.47;580.17;;;32.40;98.40;;;;;;5042715;28;20056;-65
2023/10/15 11:31:44;;;;;;;729.45;653.50;;;32.40;98.60;;;;;;5037256;28;20036;-65
2023/10/15 11:34:16;;;;;;;725.53;650.42;;;32.40;98.60;;;;;;5037574;28;20068;-65
2023/10/15 11:36:48;;;;;;;751.10;674.20;;;32.40;98.60;;;;;;5037178;28;20029;-65
2023/10/15 11:39:18;;;;;;;763.47;685.38;;;32.30;98.70;;;;;;5044975;28;20037;-65
2023/10/15 11:41:56;;;;;;;768.25;690.03;;;32.30;98.60;;;;;;5048995;28;20029;-65
2023/10/15 11:44:26;;;;;;;794.08;713.28;;;32.30;98.80;;;;;;5036997;28;20077;-64
2023/10/15 11:46:55;;;;;;;804.85;723.20;;;32.30;98.80;;;;;;5036599;28;20024;-65
2023/10/15 11:49:24;;;;;;;743.33;667.40;;;32.30;99.20;;;;;;5036900;28;20072;-66
2023/10/15 11:51:55;;;;;;;853.55;766.28;;;32.30;99.10;;;;;;5036824;28;20048;-66
2023/10/15 11:54:30;;;;;;;765.67;687.80;;;32.20;99.50;;;;;;5037005;28;20021;-67
2023/10/15 11:57:00;;;;;;;745.90;668.55;;;32.10;99.40;;;;;;5038395;28;20028;-65
2023/10/15 11:59:27;;;;;;;706.33;633.47;;;32.10;99.70;;;;;;5053512;28;20025;-68
2023/10/15 12:01:54;;;;;;;721.45;647.85;;;32.10;99.50;;;;;;5055997;28;20075;-66
2023/10/15 12:04:23;;;;;;;733.50;658.55;;;32.10;99.60;;;;;;5056489;28;20039;-66
2023/10/15 12:06:51;;;;;;;929.58;835.10;;;32.00;99.90;;;;;;5035251;28;20056;-65
2023/10/15 12:09:24;;;;;;;997.00;893.95;;;31.90;99.90;;;;;;5035195;28;20044;-66
2023/10/15 12:11:51;;;;;;;887.65;798.70;;;31.90;99.90;;;;;;5038226;28;20202;-63
2023/10/15 12:14:18;;;;;;;881.55;791.42;;;31.80;99.90;;;;;;5035916;28;20039;-66
2023/10/15 12:16:45;;;;;;;885.67;796.15;;;31.80;99.90;;;;;;5057827;22;20092;-66
2023/10/15 12:19:12;;;;;;;915.20;823.03;;;31.70;99.90;;;;;;5035481;28;20056;-66
2023/10/15 12:21:39;;;;;;;1029.00;924.78;;;31.70;99.90;;;;;;5033283;28;20565;-66
2023/10/15 12:24:08;;;;;;;1223.53;999.90;;;31.70;99.90;;;;;;5035853;28;20028;-66
2023/10/15 12:26:35;;;;;;;1139.28;999.90;;;31.60;99.90;;;;;;5035435;28;20029;-64
2023/10/15 12:29:05;;;;;;;1070.95;961.72;;;31.60;99.90;;;;;;5035703;28;20017;-63
2023/10/15 12:31:32;;;;;;;1132.10;999.90;;;31.70;99.90;;;;;;5035385;28;20033;-66